HESH/SSH METAR and TAF weather

Enter ICAO airport designator
Station Type Date Time Source
HESH METAR 2022/01/29 10:00 UTC NOAA

HESH 291000Z 03010KT CAVOK 18/03 Q1021 NOSIG


Station Type Date Time Source
HESH Decoded METAR 2022/01/29 10:00 UTC NOAA

Sharm El Sheikhintl, Egypt (HESH) 27-58N 034-23E
Jan 29, 2022 - 05:00 AM EST / 2022.01.29 1000 UTC
Wind: from the NNE (030 degrees) at 12 MPH (10 KT):0
Visibility: greater than 7 mile(s):0
Temperature: 64 F (18 C)
Dew Point: 37 F (3 C)
Relative Humidity: 36%
Pressure (altimeter): 30.15 in. Hg (1021 hPa)
ob: HESH 291000Z 03010KT CAVOK 18/03 Q1021 NOSIG
cycle: 10

Station Type Date Time Source
HESH TAF 2022/01/29 12:42 UTC NOAA

TAF HESH 291100Z 2912/3018 02014KT CAVOK

Example: see airport list